sensor_id;sensor_type;location;lat;lon;timestamp;P1;P2;P0
55441;PMS5003;41313;58.740;50.174;2022-11-11T00:00:43;9.25;9.25;4.25
55441;PMS5003;41313;58.740;50.174;2022-11-11T00:06:05;7.25;7.00;3.75
55441;PMS5003;41313;58.740;50.174;2022-11-11T00:11:27;8.00;8.00;4.75
55441;PMS5003;41313;58.740;50.174;2022-11-11T00:16:47;7.50;7.50;4.25
55441;PMS5003;41313;58.740;50.174;2022-11-11T00:22:40;4.00;4.00;1.00
55441;PMS5003;41313;58.740;50.174;2022-11-11T00:28:19;7.50;7.50;2.50
55441;PMS5003;41313;58.740;50.174;2022-11-11T00:33:39;6.75;6.75;3.50
55441;PMS5003;41313;58.740;50.174;2022-11-11T00:39:02;10.00;10.00;5.00
55441;PMS5003;41313;58.740;50.174;2022-11-11T00:44:22;6.50;6.50;4.00
55441;PMS5003;41313;58.740;50.174;2022-11-11T00:49:42;11.75;10.50;6.00
55441;PMS5003;41313;58.740;50.174;2022-11-11T00:55:21;10.50;10.50;4.00
55441;PMS5003;41313;58.740;50.174;2022-11-11T01:00:42;19.33;18.67;9.67
55441;PMS5003;41313;58.740;50.174;2022-11-11T01:06:03;11.25;11.25;7.75
55441;PMS5003;41313;58.740;50.174;2022-11-11T01:11:23;6.50;6.00;5.00
55441;PMS5003;41313;58.740;50.174;2022-11-11T01:16:44;6.50;6.50;4.50
55441;PMS5003;41313;58.740;50.174;2022-11-11T01:22:04;7.25;7.25;3.75
55441;PMS5003;41313;58.740;50.174;2022-11-11T01:27:24;8.00;8.00;6.75
55441;PMS5003;41313;58.740;50.174;2022-11-11T01:32:45;12.00;11.25;5.75
55441;PMS5003;41313;58.740;50.174;2022-11-11T01:38:05;9.50;8.25;4.50
55441;PMS5003;41313;58.740;50.174;2022-11-11T01:43:26;2.50;2.50;1.00
55441;PMS5003;41313;58.740;50.174;2022-11-11T01:48:52;9.75;9.00;4.00
55441;PMS5003;41313;58.740;50.174;2022-11-11T01:54:43;4.00;4.00;2.25
55441;PMS5003;41313;58.740;50.174;2022-11-11T02:00:10;6.25;6.25;4.25
55441;PMS5003;41313;58.740;50.174;2022-11-11T02:05:33;4.25;4.25;2.00
55441;PMS5003;41313;58.740;50.174;2022-11-11T02:11:14;7.00;7.00;5.25
55441;PMS5003;41313;58.740;50.174;2022-11-11T02:16:57;7.00;7.00;1.67
55441;PMS5003;41313;58.740;50.174;2022-11-11T02:22:22;9.00;9.00;4.50
55441;PMS5003;41313;58.740;50.174;2022-11-11T02:27:56;14.75;13.00;5.75
55441;PMS5003;41313;58.740;50.174;2022-11-11T02:33:19;9.00;8.50;4.50
55441;PMS5003;41313;58.740;50.174;2022-11-11T02:38:39;11.00;10.00;5.00
55441;PMS5003;41313;58.740;50.174;2022-11-11T02:44:00;6.50;6.50;3.50
55441;PMS5003;41313;58.740;50.174;2022-11-11T02:49:20;7.00;7.00;2.00
55441;PMS5003;41313;58.740;50.174;2022-11-11T02:54:41;11.67;11.67;6.67
55441;PMS5003;41313;58.740;50.174;2022-11-11T03:00:02;6.50;6.50;4.25
55441;PMS5003;41313;58.740;50.174;2022-11-11T03:05:23;5.50;5.50;4.25
55441;PMS5003;41313;58.740;50.174;2022-11-11T03:10:44;7.50;7.50;3.75
55441;PMS5003;41313;58.740;50.174;2022-11-11T03:16:04;12.50;12.50;6.50
55441;PMS5003;41313;58.740;50.174;2022-11-11T03:21:24;16.25;16.25;10.50
55441;PMS5003;41313;58.740;50.174;2022-11-11T03:26:44;19.25;19.00;12.00
55441;PMS5003;41313;58.740;50.174;2022-11-11T03:32:05;16.67;16.67;13.67
55441;PMS5003;41313;58.740;50.174;2022-11-11T03:37:26;23.67;23.00;14.00
55441;PMS5003;41313;58.740;50.174;2022-11-11T03:43:05;17.33;17.33;9.33
55441;PMS5003;41313;58.740;50.174;2022-11-11T03:48:27;13.00;12.33;7.00
55441;PMS5003;41313;58.740;50.174;2022-11-11T03:53:48;10.00;10.00;5.50
55441;PMS5003;41313;58.740;50.174;2022-11-11T03:59:08;11.75;11.75;7.75
55441;PMS5003;41313;58.740;50.174;2022-11-11T04:04:28;10.00;10.00;6.50
55441;PMS5003;41313;58.740;50.174;2022-11-11T04:10:07;11.25;10.25;6.75
55441;PMS5003;41313;58.740;50.174;2022-11-11T04:15:43;12.75;12.75;6.75
55441;PMS5003;41313;58.740;50.174;2022-11-11T04:21:22;25.00;24.00;13.33
55441;PMS5003;41313;58.740;50.174;2022-11-11T04:27:03;25.00;25.00;13.00
55441;PMS5003;41313;58.740;50.174;2022-11-11T04:32:25;10.00;10.00;7.00
55441;PMS5003;41313;58.740;50.174;2022-11-11T04:37:54;17.67;17.67;11.33
55441;PMS5003;41313;58.740;50.174;2022-11-11T04:43:34;27.33;27.33;14.33
55441;PMS5003;41313;58.740;50.174;2022-11-11T04:49:14;18.33;17.67;12.00
55441;PMS5003;41313;58.740;50.174;2022-11-11T04:54:36;16.00;14.75;8.75
55441;PMS5003;41313;58.740;50.174;2022-11-11T05:00:18;18.50;17.50;10.50
55441;PMS5003;41313;58.740;50.174;2022-11-11T05:05:38;35.00;33.33;19.33
55441;PMS5003;41313;58.740;50.174;2022-11-11T05:11:18;20.67;20.67;12.67
55441;PMS5003;41313;58.740;50.174;2022-11-11T05:16:48;17.00;17.00;11.00
55441;PMS5003;41313;58.740;50.174;2022-11-11T05:22:29;19.33;19.33;15.00
55441;PMS5003;41313;58.740;50.174;2022-11-11T05:27:52;8.50;8.50;4.50
55441;PMS5003;41313;58.740;50.174;2022-11-11T05:33:12;20.75;19.75;12.00
55441;PMS5003;41313;58.740;50.174;2022-11-11T05:38:32;29.00;23.67;15.33
55441;PMS5003;41313;58.740;50.174;2022-11-11T05:43:53;12.00;12.00;8.00
55441;PMS5003;41313;58.740;50.174;2022-11-11T05:49:13;6.00;6.00;3.75
55441;PMS5003;41313;58.740;50.174;2022-11-11T05:54:36;11.25;11.25;7.00
55441;PMS5003;41313;58.740;50.174;2022-11-11T05:59:58;13.75;13.75;8.50
55441;PMS5003;41313;58.740;50.174;2022-11-11T06:05:18;13.33;13.33;6.00
55441;PMS5003;41313;58.740;50.174;2022-11-11T06:10:39;16.00;16.00;12.00
55441;PMS5003;41313;58.740;50.174;2022-11-11T06:15:59;24.00;21.50;13.25
55441;PMS5003;41313;58.740;50.174;2022-11-11T06:21:20;24.67;24.00;15.00
55441;PMS5003;41313;58.740;50.174;2022-11-11T06:26:40;16.00;13.67;9.00
55441;PMS5003;41313;58.740;50.174;2022-11-11T06:32:00;12.25;12.25;6.50
55441;PMS5003;41313;58.740;50.174;2022-11-11T06:37:21;16.00;16.00;9.00
55441;PMS5003;41313;58.740;50.174;2022-11-11T06:42:42;9.00;9.00;4.75
55441;PMS5003;41313;58.740;50.174;2022-11-11T06:48:02;7.67;7.67;4.00
55441;PMS5003;41313;58.740;50.174;2022-11-11T06:53:24;15.25;15.25;8.75
55441;PMS5003;41313;58.740;50.174;2022-11-11T06:58:44;8.25;8.25;5.00
55441;PMS5003;41313;58.740;50.174;2022-11-11T07:04:04;13.25;13.25;7.50
55441;PMS5003;41313;58.740;50.174;2022-11-11T07:09:25;27.67;27.00;14.00
55441;PMS5003;41313;58.740;50.174;2022-11-11T07:14:47;21.33;19.00;12.67
55441;PMS5003;41313;58.740;50.174;2022-11-11T07:20:07;20.33;20.33;12.33
55441;PMS5003;41313;58.740;50.174;2022-11-11T07:25:29;18.00;18.00;9.00
55441;PMS5003;41313;58.740;50.174;2022-11-11T07:30:49;38.67;38.00;21.00
55441;PMS5003;41313;58.740;50.174;2022-11-11T07:36:09;25.00;23.67;16.33
55441;PMS5003;41313;58.740;50.174;2022-11-11T07:41:29;43.33;38.67;22.00
55441;PMS5003;41313;58.740;50.174;2022-11-11T07:46:49;39.00;39.00;23.00
55441;PMS5003;41313;58.740;50.174;2022-11-11T07:52:09;56.67;50.33;29.00
55441;PMS5003;41313;58.740;50.174;2022-11-11T07:57:29;103.00;81.00;44.33
55441;PMS5003;41313;58.740;50.174;2022-11-11T08:02:50;80.25;64.25;31.50
55441;PMS5003;41313;58.740;50.174;2022-11-11T08:08:10;31.67;30.33;18.33
55441;PMS5003;41313;58.740;50.174;2022-11-11T08:13:30;35.67;35.67;21.33
55441;PMS5003;41313;58.740;50.174;2022-11-11T08:19:00;43.33;38.33;21.33
55441;PMS5003;41313;58.740;50.174;2022-11-11T08:24:20;25.00;22.00;12.00
55441;PMS5003;41313;58.740;50.174;2022-11-11T08:29:41;25.33;25.33;14.00
55441;PMS5003;41313;58.740;50.174;2022-11-11T08:35:01;28.33;27.33;15.00
55441;PMS5003;41313;58.740;50.174;2022-11-11T08:40:23;26.00;24.67;12.67
55441;PMS5003;41313;58.740;50.174;2022-11-11T08:45:51;11.75;11.75;5.50
55441;PMS5003;41313;58.740;50.174;2022-11-11T08:51:12;18.50;18.50;9.00
55441;PMS5003;41313;58.740;50.174;2022-11-11T08:56:34;34.67;31.33;18.00
55441;PMS5003;41313;58.740;50.174;2022-11-11T09:01:54;30.67;29.67;17.33
55441;PMS5003;41313;58.740;50.174;2022-11-11T09:07:14;31.67;30.00;12.67
55441;PMS5003;41313;58.740;50.174;2022-11-11T09:12:34;19.00;19.00;14.00
55441;PMS5003;41313;58.740;50.174;2022-11-11T09:17:55;30.67;26.67;14.67
55441;PMS5003;41313;58.740;50.174;2022-11-11T09:23:14;16.00;16.00;8.75
55441;PMS5003;41313;58.740;50.174;2022-11-11T09:28:34;31.67;28.67;16.00
55441;PMS5003;41313;58.740;50.174;2022-11-11T09:33:55;140.75;100.25;44.00
55441;PMS5003;41313;58.740;50.174;2022-11-11T09:39:15;169.75;120.00;47.50
55441;PMS5003;41313;58.740;50.174;2022-11-11T09:50:24;103.00;73.33;35.67
55441;PMS5003;41313;58.740;50.174;2022-11-11T09:55:48;197.50;147.75;56.25
55441;PMS5003;41313;58.740;50.174;2022-11-11T10:01:11;165.00;122.25;53.00
55441;PMS5003;41313;58.740;50.174;2022-11-11T10:06:36;96.33;83.33;42.67
55441;PMS5003;41313;58.740;50.174;2022-11-11T10:12:09;123.00;101.25;45.00
55441;PMS5003;41313;58.740;50.174;2022-11-11T10:17:39;103.67;80.67;40.33
55441;PMS5003;41313;58.740;50.174;2022-11-11T10:28:36;57.67;46.67;29.67
55441;PMS5003;41313;58.740;50.174;2022-11-11T10:34:04;25.00;22.50;10.00
55441;PMS5003;41313;58.740;50.174;2022-11-11T10:39:43;22.00;22.00;14.00
55441;PMS5003;41313;58.740;50.174;2022-11-11T10:50:46;9.25;9.25;6.00
55441;PMS5003;41313;58.740;50.174;2022-11-11T11:01:42;14.00;14.00;9.00
55441;PMS5003;41313;58.740;50.174;2022-11-11T11:07:33;12.75;12.75;8.00
55441;PMS5003;41313;58.740;50.174;2022-11-11T11:13:03;23.67;23.33;12.67
55441;PMS5003;41313;58.740;50.174;2022-11-11T11:18:26;19.00;19.00;8.25
55441;PMS5003;41313;58.740;50.174;2022-11-11T11:23:46;65.00;48.33;27.67
55441;PMS5003;41313;58.740;50.174;2022-11-11T11:29:07;3.00;3.00;0.75
55441;PMS5003;41313;58.740;50.174;2022-11-11T11:34:43;20.33;19.67;11.00
55441;PMS5003;41313;58.740;50.174;2022-11-11T11:40:06;73.33;59.67;34.33
55441;PMS5003;41313;58.740;50.174;2022-11-11T11:45:27;34.33;34.00;19.00
55441;PMS5003;41313;58.740;50.174;2022-11-11T11:50:48;92.00;67.33;36.67
55441;PMS5003;41313;58.740;50.174;2022-11-11T11:56:16;89.33;67.67;41.67
55441;PMS5003;41313;58.740;50.174;2022-11-11T12:01:54;73.67;59.67;36.33
55441;PMS5003;41313;58.740;50.174;2022-11-11T12:13:33;53.33;44.00;25.00
55441;PMS5003;41313;58.740;50.174;2022-11-11T12:19:13;45.00;43.33;26.00
55441;PMS5003;41313;58.740;50.174;2022-11-11T12:30:39;50.33;47.33;31.00
55441;PMS5003;41313;58.740;50.174;2022-11-11T12:36:26;43.00;39.67;24.33
55441;PMS5003;41313;58.740;50.174;2022-11-11T12:48:01;35.00;33.67;21.67
55441;PMS5003;41313;58.740;50.174;2022-11-11T13:05:28;63.67;53.00;31.00
55441;PMS5003;41313;58.740;50.174;2022-11-11T13:11:13;69.67;57.00;32.33
55441;PMS5003;41313;58.740;50.174;2022-11-11T13:16:44;68.33;52.67;30.67
55441;PMS5003;41313;58.740;50.174;2022-11-11T13:22:07;56.00;50.00;30.67
55441;PMS5003;41313;58.740;50.174;2022-11-11T13:27:39;37.33;30.33;14.33
55441;PMS5003;41313;58.740;50.174;2022-11-11T13:33:11;39.67;37.00;21.67
55441;PMS5003;41313;58.740;50.174;2022-11-11T13:38:37;44.67;40.33;23.33
55441;PMS5003;41313;58.740;50.174;2022-11-11T13:44:05;45.67;42.00;24.00
55441;PMS5003;41313;58.740;50.174;2022-11-11T13:49:37;59.67;50.33;30.33
55441;PMS5003;41313;58.740;50.174;2022-11-11T13:55:20;55.67;46.67;27.67
55441;PMS5003;41313;58.740;50.174;2022-11-11T14:00:57;65.00;55.00;31.67
55441;PMS5003;41313;58.740;50.174;2022-11-11T14:11:46;97.00;75.33;44.33
55441;PMS5003;41313;58.740;50.174;2022-11-11T14:17:11;73.00;58.00;35.67
55441;PMS5003;41313;58.740;50.174;2022-11-11T14:22:33;75.33;60.67;33.33
55441;PMS5003;41313;58.740;50.174;2022-11-11T14:27:53;109.00;82.33;45.33
55441;PMS5003;41313;58.740;50.174;2022-11-11T14:44:51;124.00;108.25;51.50
55441;PMS5003;41313;58.740;50.174;2022-11-11T14:55:51;97.00;75.00;43.00
55441;PMS5003;41313;58.740;50.174;2022-11-11T15:01:17;90.33;71.67;43.67
55441;PMS5003;41313;58.740;50.174;2022-11-11T15:12:19;158.00;145.50;76.00
55441;PMS5003;41313;58.740;50.174;2022-11-11T15:18:27;104.75;88.50;49.75
55441;PMS5003;41313;58.740;50.174;2022-11-11T15:35:22;115.25;103.00;60.25
55441;PMS5003;41313;58.740;50.174;2022-11-11T15:41:05;102.00;81.75;51.50
55441;PMS5003;41313;58.740;50.174;2022-11-11T15:46:40;74.67;62.33;40.00
55441;PMS5003;41313;58.740;50.174;2022-11-11T15:52:01;80.33;64.00;37.00
55441;PMS5003;41313;58.740;50.174;2022-11-11T15:57:26;86.33;69.33;40.00
55441;PMS5003;41313;58.740;50.174;2022-11-11T16:02:49;61.33;51.67;31.67
55441;PMS5003;41313;58.740;50.174;2022-11-11T16:08:14;50.33;46.00;29.33
55441;PMS5003;41313;58.740;50.174;2022-11-11T16:13:43;83.67;66.33;38.33
55441;PMS5003;41313;58.740;50.174;2022-11-11T16:19:53;110.50;93.00;49.75
55441;PMS5003;41313;58.740;50.174;2022-11-11T16:24:51;75.00;61.00;36.67
55441;PMS5003;41313;58.740;50.174;2022-11-11T16:36:07;107.00;92.25;50.50
55441;PMS5003;41313;58.740;50.174;2022-11-11T16:41:36;46.00;42.33;22.67
55441;PMS5003;41313;58.740;50.174;2022-11-11T16:47:00;49.33;44.00;26.33
55441;PMS5003;41313;58.740;50.174;2022-11-11T16:52:24;66.00;53.00;31.00
55441;PMS5003;41313;58.740;50.174;2022-11-11T16:57:49;73.00;59.67;34.00
55441;PMS5003;41313;58.740;50.174;2022-11-11T17:03:12;64.67;51.33;30.00
55441;PMS5003;41313;58.740;50.174;2022-11-11T17:08:40;58.67;49.67;27.00
55441;PMS5003;41313;58.740;50.174;2022-11-11T17:14:02;79.00;59.67;33.67
55441;PMS5003;41313;58.740;50.174;2022-11-11T17:19:29;91.00;70.00;40.33
55441;PMS5003;41313;58.740;50.174;2022-11-11T17:24:51;78.33;58.67;33.00
55441;PMS5003;41313;58.740;50.174;2022-11-11T17:30:11;83.33;64.67;37.67
55441;PMS5003;41313;58.740;50.174;2022-11-11T17:35:32;58.67;49.33;28.00
55441;PMS5003;41313;58.740;50.174;2022-11-11T17:40:52;60.00;50.00;31.33
55441;PMS5003;41313;58.740;50.174;2022-11-11T17:46:13;36.00;36.00;22.67
55441;PMS5003;41313;58.740;50.174;2022-11-11T17:51:38;40.00;38.33;22.00
55441;PMS5003;41313;58.740;50.174;2022-11-11T17:56:58;42.33;39.00;21.33
55441;PMS5003;41313;58.740;50.174;2022-11-11T18:02:18;43.67;39.00;17.67
55441;PMS5003;41313;58.740;50.174;2022-11-11T18:07:38;43.67;42.67;26.00
55441;PMS5003;41313;58.740;50.174;2022-11-11T18:12:59;31.00;31.00;16.33
55441;PMS5003;41313;58.740;50.174;2022-11-11T18:18:19;42.00;37.33;21.33
55441;PMS5003;41313;58.740;50.174;2022-11-11T18:23:39;35.67;33.33;20.00
55441;PMS5003;41313;58.740;50.174;2022-11-11T18:29:00;28.67;27.00;16.00
55441;PMS5003;41313;58.740;50.174;2022-11-11T18:34:20;34.33;33.33;18.33
55441;PMS5003;41313;58.740;50.174;2022-11-11T18:39:40;21.33;21.00;8.33
55441;PMS5003;41313;58.740;50.174;2022-11-11T18:45:00;30.00;27.33;17.33
55441;PMS5003;41313;58.740;50.174;2022-11-11T18:50:20;26.67;26.33;12.67
55441;PMS5003;41313;58.740;50.174;2022-11-11T18:55:41;24.33;24.33;14.67
55441;PMS5003;41313;58.740;50.174;2022-11-11T19:01:02;26.67;24.33;15.67
55441;PMS5003;41313;58.740;50.174;2022-11-11T19:06:26;23.00;23.00;12.33
55441;PMS5003;41313;58.740;50.174;2022-11-11T19:11:48;16.00;16.00;9.33
55441;PMS5003;41313;58.740;50.174;2022-11-11T19:17:11;15.67;13.00;8.33
55441;PMS5003;41313;58.740;50.174;2022-11-11T19:22:48;15.75;15.00;7.75
55441;PMS5003;41313;58.740;50.174;2022-11-11T19:28:09;9.75;9.75;8.00
55441;PMS5003;41313;58.740;50.174;2022-11-11T19:33:33;10.50;10.50;6.75
55441;PMS5003;41313;58.740;50.174;2022-11-11T19:38:56;5.67;5.67;5.00
55441;PMS5003;41313;58.740;50.174;2022-11-11T19:44:18;21.00;17.67;11.00
55441;PMS5003;41313;58.740;50.174;2022-11-11T19:49:38;25.00;25.00;13.00
55441;PMS5003;41313;58.740;50.174;2022-11-11T19:55:04;14.50;14.50;9.00
55441;PMS5003;41313;58.740;50.174;2022-11-11T20:00:26;13.00;13.00;7.33
55441;PMS5003;41313;58.740;50.174;2022-11-11T20:05:48;9.00;9.00;5.00
55441;PMS5003;41313;58.740;50.174;2022-11-11T20:11:08;9.00;9.00;6.75
55441;PMS5003;41313;58.740;50.174;2022-11-11T20:16:29;8.50;8.50;6.00
55441;PMS5003;41313;58.740;50.174;2022-11-11T20:21:49;7.25;7.25;4.75
55441;PMS5003;41313;58.740;50.174;2022-11-11T20:27:10;8.75;8.75;5.00
55441;PMS5003;41313;58.740;50.174;2022-11-11T20:32:31;11.00;11.00;6.50
55441;PMS5003;41313;58.740;50.174;2022-11-11T20:37:54;8.25;8.25;5.00
55441;PMS5003;41313;58.740;50.174;2022-11-11T20:43:16;6.25;6.25;3.00
55441;PMS5003;41313;58.740;50.174;2022-11-11T20:48:38;14.50;14.50;7.00
55441;PMS5003;41313;58.740;50.174;2022-11-11T20:54:01;8.50;8.50;6.25
55441;PMS5003;41313;58.740;50.174;2022-11-11T20:59:22;11.00;11.00;6.50
55441;PMS5003;41313;58.740;50.174;2022-11-11T21:04:46;10.00;10.00;5.25
55441;PMS5003;41313;58.740;50.174;2022-11-11T21:10:08;6.00;6.00;3.25
55441;PMS5003;41313;58.740;50.174;2022-11-11T21:15:36;13.00;12.00;8.00
55441;PMS5003;41313;58.740;50.174;2022-11-11T21:21:08;7.25;7.25;4.00
55441;PMS5003;41313;58.740;50.174;2022-11-11T21:26:30;5.00;5.00;3.50
55441;PMS5003;41313;58.740;50.174;2022-11-11T21:31:51;7.50;7.50;4.50
55441;PMS5003;41313;58.740;50.174;2022-11-11T21:37:11;8.67;8.67;5.33
55441;PMS5003;41313;58.740;50.174;2022-11-11T21:42:31;8.50;6.00;4.75
55441;PMS5003;41313;58.740;50.174;2022-11-11T21:47:51;6.75;6.75;4.25
55441;PMS5003;41313;58.740;50.174;2022-11-11T21:53:12;7.50;5.00;2.50
55441;PMS5003;41313;58.740;50.174;2022-11-11T21:58:32;4.00;4.00;2.50
55441;PMS5003;41313;58.740;50.174;2022-11-11T22:03:54;7.00;5.25;2.25
55441;PMS5003;41313;58.740;50.174;2022-11-11T22:09:17;4.50;4.50;2.00
55441;PMS5003;41313;58.740;50.174;2022-11-11T22:14:37;7.00;7.00;4.00
55441;PMS5003;41313;58.740;50.174;2022-11-11T22:19:57;12.67;12.67;9.00
55441;PMS5003;41313;58.740;50.174;2022-11-11T22:25:17;7.33;7.33;4.67
55441;PMS5003;41313;58.740;50.174;2022-11-11T22:30:37;11.75;11.75;7.75
55441;PMS5003;41313;58.740;50.174;2022-11-11T22:36:01;5.00;5.00;4.00
55441;PMS5003;41313;58.740;50.174;2022-11-11T22:41:23;8.00;8.00;5.50
55441;PMS5003;41313;58.740;50.174;2022-11-11T22:46:50;5.50;5.50;2.00
55441;PMS5003;41313;58.740;50.174;2022-11-11T22:52:10;4.00;4.00;1.50
55441;PMS5003;41313;58.740;50.174;2022-11-11T22:57:30;2.00;2.00;1.00
55441;PMS5003;41313;58.740;50.174;2022-11-11T23:02:50;1.00;1.00;1.00
55441;PMS5003;41313;58.740;50.174;2022-11-11T23:08:11;0.00;0.00;0.00
55441;PMS5003;41313;58.740;50.174;2022-11-11T23:13:33;0.50;0.50;0.00
55441;PMS5003;41313;58.740;50.174;2022-11-11T23:18:54;2.50;2.50;1.25
55441;PMS5003;41313;58.740;50.174;2022-11-11T23:24:14;7.25;6.25;3.50
55441;PMS5003;41313;58.740;50.174;2022-11-11T23:29:34;9.00;9.00;4.50
55441;PMS5003;41313;58.740;50.174;2022-11-11T23:34:54;12.00;12.00;6.00
55441;PMS5003;41313;58.740;50.174;2022-11-11T23:40:14;11.75;11.75;6.50
55441;PMS5003;41313;58.740;50.174;2022-11-11T23:45:35;12.50;11.00;5.25
55441;PMS5003;41313;58.740;50.174;2022-11-11T23:50:58;33.67;33.67;20.00
55441;PMS5003;41313;58.740;50.174;2022-11-11T23:56:19;20.67;20.67;13.33
